createdAt,value
2023-05-18T00:03:14.507Z,9.30
2023-05-18T00:23:17.760Z,9.10
2023-05-18T00:43:20.672Z,9.07
2023-05-18T01:03:23.938Z,8.66
2023-05-18T01:23:27.277Z,8.74
2023-05-18T01:43:30.136Z,8.73
2023-05-18T02:03:33.257Z,8.67
2023-05-18T02:23:36.080Z,9.58
2023-05-18T02:43:39.409Z,9.73
2023-05-18T03:03:43.594Z,9.22
2023-05-18T03:23:46.322Z,9.22
2023-05-18T03:43:49.936Z,9.18
2023-05-18T04:03:52.973Z,9.34
2023-05-18T04:23:55.751Z,9.39
2023-05-18T04:43:59.041Z,9.66
2023-05-18T05:04:01.938Z,9.72
2023-05-18T05:24:06.490Z,10.38
2023-05-18T05:44:09.893Z,10.85
2023-05-18T06:04:14.028Z,11.53
2023-05-18T06:24:17.366Z,11.73
2023-05-18T06:44:20.115Z,11.81
2023-05-18T07:04:23.004Z,12.58
2023-05-18T07:24:25.693Z,11.73
2023-05-18T07:44:28.428Z,12.02
2023-05-18T08:04:31.192Z,12.38
2023-05-18T08:24:34.693Z,12.11
2023-05-18T08:44:37.589Z,13.12
2023-05-18T09:04:40.548Z,13.22
2023-05-18T09:24:43.218Z,13.36
2023-05-18T09:44:47.619Z,14.12
2023-05-18T10:04:50.667Z,13.92
2023-05-18T10:24:54.134Z,14.00
2023-05-18T10:44:57.131Z,12.96
2023-05-18T11:05:00.515Z,13.55
2023-05-18T11:25:03.250Z,14.33
2023-05-18T11:45:06.494Z,14.25
2023-05-18T12:05:09.734Z,13.93
2023-05-18T12:25:12.717Z,13.62
2023-05-18T12:45:15.767Z,12.70
2023-05-18T13:05:19.003Z,13.16
2023-05-18T13:25:21.957Z,12.21
2023-05-18T13:45:24.870Z,12.32
2023-05-18T14:05:27.780Z,12.77
2023-05-18T14:25:30.445Z,11.62
2023-05-18T14:45:33.308Z,12.18
2023-05-18T15:05:36.212Z,12.30
2023-05-18T15:25:38.954Z,11.65
2023-05-18T15:45:42.005Z,12.00
2023-05-18T16:05:46.040Z,12.08
2023-05-18T16:25:48.766Z,12.74
2023-05-18T16:45:52.145Z,11.97
2023-05-18T17:05:55.053Z,11.53
2023-05-18T17:26:05.903Z,10.96
2023-05-18T17:46:09.405Z,11.50
2023-05-18T18:06:12.494Z,10.48
2023-05-18T18:26:15.178Z,11.37
2023-05-18T18:46:18.957Z,11.38
2023-05-18T19:06:24.186Z,11.50
2023-05-18T19:26:28.135Z,11.29
2023-05-18T19:46:31.005Z,11.51
2023-05-18T20:06:33.946Z,11.44
2023-05-18T20:26:37.243Z,11.48
2023-05-18T20:46:43.551Z,11.53
2023-05-18T21:06:46.487Z,11.08
2023-05-18T21:26:49.206Z,10.98
2023-05-18T21:46:56.535Z,10.92
2023-05-18T22:07:00.530Z,10.36
2023-05-18T22:27:05.212Z,10.36
2023-05-18T22:47:28.791Z,10.40
2023-05-18T23:07:32.005Z,10.28
2023-05-18T23:27:34.748Z,10.38
2023-05-18T23:47:40.637Z,10.37
